createdAt,value
2023-07-08T00:00:56.380Z,100892.47
2023-07-08T00:03:24.237Z,100887.25
2023-07-08T00:05:57.723Z,100882.91
2023-07-08T00:08:26.034Z,100889.19
2023-07-08T00:10:57.008Z,100886.63
2023-07-08T00:13:24.832Z,100885.03
2023-07-08T00:15:52.765Z,100880.69
2023-07-08T00:18:20.618Z,100878.13
2023-07-08T00:20:51.131Z,100875.56
2023-07-08T00:23:24.852Z,100870.34
2023-07-08T00:25:52.852Z,100859.88
2023-07-08T00:28:22.633Z,100853.78
2023-07-08T00:30:50.617Z,100869.66
2023-07-08T00:33:18.557Z,100873.22
2023-07-08T00:35:47.287Z,100872.31
2023-07-08T00:38:21.386Z,100867.09
2023-07-08T00:40:52.720Z,100865.38
2023-07-08T00:43:35.054Z,100866.28
2023-07-08T00:46:22.687Z,100867.16
2023-07-08T00:48:54.116Z,100861.94
2023-07-08T00:51:24.768Z,100862.88
2023-07-08T00:53:52.945Z,100861.16
2023-07-08T00:56:33.743Z,100863.81
2023-07-08T00:59:09.661Z,100857.69
2023-07-08T01:01:43.809Z,100855.97
2023-07-08T01:04:15.895Z,100845.44
2023-07-08T01:06:58.142Z,100849.88
2023-07-08T01:09:31.783Z,100848.13
2023-07-08T01:12:08.987Z,100849.91
2023-07-08T01:14:43.317Z,100835.00
2023-07-08T01:17:15.121Z,100834.13
2023-07-08T01:19:45.370Z,100839.34
2023-07-08T01:22:14.888Z,100837.63
2023-07-08T01:24:45.882Z,100830.63
2023-07-08T01:27:17.734Z,100834.19
2023-07-08T01:29:47.476Z,100826.34
2023-07-08T01:32:19.046Z,100824.56
2023-07-08T01:35:00.705Z,100823.72
2023-07-08T01:37:38.936Z,100825.53
2023-07-08T01:40:25.182Z,100818.53
2023-07-08T01:42:54.000Z,100817.59
2023-07-08T01:45:25.233Z,100823.72
2023-07-08T01:47:57.539Z,100809.72
2023-07-08T01:50:28.531Z,100818.50
2023-07-08T01:53:02.497Z,100815.88
2023-07-08T01:55:31.272Z,100810.66
2023-07-08T01:57:59.454Z,100811.53
2023-07-08T02:00:27.684Z,100807.16
2023-07-08T02:02:55.642Z,100804.53
2023-07-08T02:05:24.544Z,100800.16
2023-07-08T02:07:52.532Z,100797.50
2023-07-08T02:10:22.190Z,100790.47
2023-07-08T02:12:50.000Z,100793.13
2023-07-08T02:15:18.065Z,100788.72
2023-07-08T02:17:45.913Z,100790.50
2023-07-08T02:20:14.020Z,100788.78
2023-07-08T02:22:41.940Z,100782.59
2023-07-08T02:25:10.433Z,100782.59
2023-07-08T02:27:40.250Z,100780.88
2023-07-08T02:30:09.997Z,100778.25
2023-07-08T02:32:39.942Z,100784.41
2023-07-08T02:35:09.601Z,100783.50
2023-07-08T02:37:37.505Z,100780.84
2023-07-08T02:40:07.516Z,100785.22
2023-07-08T02:42:35.445Z,100779.97
2023-07-08T02:45:06.506Z,100779.97
2023-07-08T02:47:34.579Z,100772.97
2023-07-08T02:50:02.506Z,100768.66
2023-07-08T02:52:30.419Z,100773.00
2023-07-08T02:54:58.215Z,100781.78
2023-07-08T02:57:26.035Z,100785.22
2023-07-08T02:59:53.929Z,100773.91
2023-07-08T03:02:24.268Z,100780.88
2023-07-08T03:04:52.182Z,100773.00
2023-07-08T03:07:20.062Z,100769.50
2023-07-08T03:09:48.089Z,100768.66
2023-07-08T03:12:15.893Z,100773.06
2023-07-08T03:14:43.806Z,100766.03
2023-07-08T03:17:12.796Z,100765.16
2023-07-08T03:19:42.619Z,100762.56
2023-07-08T03:22:10.673Z,100758.22
2023-07-08T03:24:47.247Z,100755.59
2023-07-08T03:27:19.046Z,100754.72
2023-07-08T03:29:50.007Z,100756.50
2023-07-08T03:32:18.391Z,100759.97
2023-07-08T03:34:47.623Z,100762.59
2023-07-08T03:37:15.830Z,100759.06
2023-07-08T03:39:43.705Z,100769.59
2023-07-08T03:42:11.603Z,100770.44
2023-07-08T03:44:39.546Z,100771.34
2023-07-08T03:47:09.227Z,100773.06
2023-07-08T03:49:37.991Z,100769.56
2023-07-08T03:52:18.038Z,100766.06
2023-07-08T03:54:46.291Z,100767.84
2023-07-08T03:57:14.227Z,100773.09
2023-07-08T03:59:42.335Z,100771.34
2023-07-08T04:02:12.236Z,100764.34
2023-07-08T04:04:40.774Z,100771.31
2023-07-08T04:07:09.952Z,100769.56
2023-07-08T04:09:37.960Z,100770.44
2023-07-08T04:12:07.008Z,100766.03
2023-07-08T04:14:34.985Z,100766.00
2023-07-08T04:17:02.997Z,100764.28
2023-07-08T04:19:30.885Z,100768.63
2023-07-08T04:21:58.788Z,100775.63
2023-07-08T04:24:28.189Z,100780.91
2023-07-08T04:26:56.326Z,100787.94
2023-07-08T04:29:24.802Z,100787.00
2023-07-08T04:31:52.638Z,100776.47
2023-07-08T04:34:21.315Z,100781.72
2023-07-08T04:36:49.246Z,100774.69
2023-07-08T04:39:17.122Z,100782.56
2023-07-08T04:41:46.803Z,100778.97
2023-07-08T04:44:15.058Z,100789.38
2023-07-08T04:46:52.268Z,100783.22
2023-07-08T04:49:21.153Z,100786.69
2023-07-08T04:51:48.962Z,100778.69
2023-07-08T04:54:16.861Z,100785.63
2023-07-08T04:56:49.577Z,100788.13
2023-07-08T04:59:21.391Z,100786.16
2023-07-08T05:01:50.406Z,100780.75
2023-07-08T05:04:21.749Z,100791.13
2023-07-08T05:06:51.208Z,100793.66
2023-07-08T05:09:19.605Z,100787.50
2023-07-08T05:11:48.830Z,100782.03
2023-07-08T05:14:16.618Z,100785.31
2023-07-08T05:16:44.497Z,100785.34
2023-07-08T05:19:12.496Z,100783.50
2023-07-08T05:21:40.552Z,100781.66
2023-07-08T05:24:09.173Z,100786.66
2023-07-08T05:26:37.259Z,100772.41
2023-07-08T05:29:06.700Z,100781.84
2023-07-08T05:34:06.341Z,100778.00
2023-07-08T05:36:34.342Z,100769.78
2023-07-08T05:39:02.475Z,100759.78
2023-07-08T05:41:30.373Z,100765.88
2023-07-08T05:43:58.168Z,100759.91
2023-07-08T05:46:27.439Z,100762.72
2023-07-08T05:48:57.781Z,100763.00
2023-07-08T05:51:26.875Z,100765.09
2023-07-08T05:53:54.658Z,100766.69
2023-07-08T05:56:22.576Z,100762.44
2023-07-08T05:58:50.347Z,100770.34
2023-07-08T06:01:18.204Z,100757.22
2023-07-08T06:03:47.431Z,100756.53
2023-07-08T06:06:15.503Z,100748.56
2023-07-08T06:08:43.932Z,100747.50
2023-07-08T06:11:11.869Z,100743.19
2023-07-08T06:13:39.723Z,100745.84
2023-07-08T06:16:07.846Z,100750.75
2023-07-08T06:18:35.968Z,100754.97
2023-07-08T06:21:05.254Z,100745.63
2023-07-08T06:23:33.072Z,100751.84
2023-07-08T06:26:01.034Z,100748.25
2023-07-08T06:28:28.888Z,100751.59
2023-07-08T06:30:56.740Z,100755.69
2023-07-08T06:33:24.703Z,100756.66
2023-07-08T06:35:52.664Z,100762.56
2023-07-08T06:38:21.909Z,100763.25
2023-07-08T06:40:49.756Z,100763.47
2023-07-08T06:43:17.578Z,100766.22
2023-07-08T06:46:07.431Z,100768.38
2023-07-08T06:48:35.465Z,100763.81
2023-07-08T06:51:03.581Z,100763.38
2023-07-08T06:53:32.844Z,100760.53
2023-07-08T06:56:00.744Z,100759.91
2023-07-08T06:58:28.984Z,100766.63
2023-07-08T07:00:56.892Z,100767.59
2023-07-08T07:03:25.068Z,100763.34
2023-07-08T07:05:52.954Z,100757.84
2023-07-08T07:08:21.048Z,100759.25
2023-07-08T07:10:50.245Z,100753.38
2023-07-08T07:13:18.057Z,100755.25
2023-07-08T07:15:45.975Z,100762.00
2023-07-08T07:18:13.899Z,100762.44
2023-07-08T07:20:50.986Z,100762.47
2023-07-08T07:23:18.962Z,100760.69
2023-07-08T07:25:50.934Z,100758.00
2023-07-08T07:28:20.607Z,100757.03
2023-07-08T07:30:56.239Z,100753.19
2023-07-08T07:33:24.465Z,100752.47
2023-07-08T07:35:52.396Z,100752.94
2023-07-08T07:38:20.343Z,100758.41
2023-07-08T07:40:48.365Z,100744.56
2023-07-08T07:43:16.246Z,100750.13
2023-07-08T07:45:45.382Z,100747.16
2023-07-08T07:48:13.310Z,100755.50
2023-07-08T07:50:41.724Z,100755.53
2023-07-08T07:53:09.580Z,100751.72
2023-07-08T07:55:37.382Z,100761.13
2023-07-08T07:58:06.060Z,100745.78
2023-07-08T08:00:34.128Z,100737.59
2023-07-08T08:03:03.690Z,100739.59
2023-07-08T08:05:31.647Z,100744.28
2023-07-08T08:07:59.580Z,100747.13
2023-07-08T08:10:27.646Z,100752.16
2023-07-08T08:12:55.540Z,100747.41
2023-07-08T08:15:23.984Z,100746.88
2023-07-08T08:17:53.386Z,100749.13
2023-07-08T08:20:26.171Z,100743.84
2023-07-08T08:22:54.184Z,100748.28
2023-07-08T08:25:25.283Z,100738.31
2023-07-08T08:27:53.559Z,100745.19
2023-07-08T08:30:21.724Z,100744.25
2023-07-08T08:32:49.764Z,100750.00
2023-07-08T08:35:17.955Z,100745.00
2023-07-08T08:37:48.233Z,100751.72
2023-07-08T08:40:22.027Z,100744.25
2023-07-08T08:42:59.569Z,100744.31
2023-07-08T08:45:33.216Z,100750.88
2023-07-08T08:48:06.401Z,100748.16
2023-07-08T08:50:44.562Z,100749.44
2023-07-08T08:53:18.503Z,100746.06
2023-07-08T08:55:52.699Z,100748.66
2023-07-08T08:58:36.265Z,100743.97
2023-07-08T09:01:11.854Z,100746.34
2023-07-08T09:03:50.279Z,100748.59
2023-07-08T09:06:24.262Z,100748.47
2023-07-08T09:08:57.020Z,100745.78
2023-07-08T09:11:39.893Z,100746.00
2023-07-08T09:14:17.423Z,100741.53
2023-07-08T09:16:57.930Z,100743.59
2023-07-08T09:19:33.457Z,100746.84
2023-07-08T09:22:12.297Z,100743.13
2023-07-08T09:24:46.379Z,100756.44
2023-07-08T09:27:14.360Z,100755.50
2023-07-08T09:29:42.282Z,100752.00
2023-07-08T09:32:18.454Z,100747.75
2023-07-08T09:34:51.150Z,100752.25
2023-07-08T09:37:29.573Z,100747.94
2023-07-08T09:40:01.517Z,100741.78
2023-07-08T09:42:34.058Z,100735.28
2023-07-08T09:45:12.724Z,100741.69
2023-07-08T09:47:41.798Z,100736.97
2023-07-08T09:50:22.110Z,100738.56
2023-07-08T09:52:52.679Z,100736.63
2023-07-08T09:55:22.263Z,100738.84
2023-07-08T09:57:54.802Z,100742.25
2023-07-08T10:00:35.040Z,100741.78
2023-07-08T10:03:14.082Z,100743.53
2023-07-08T10:05:44.850Z,100741.03
2023-07-08T10:08:17.345Z,100751.47
2023-07-08T10:10:59.837Z,100755.66
2023-07-08T10:13:39.102Z,100754.47
2023-07-08T10:16:16.067Z,100750.25
2023-07-08T10:18:44.365Z,100741.66
2023-07-08T10:21:27.127Z,100741.44
2023-07-08T10:24:07.059Z,100744.34
2023-07-08T10:26:39.239Z,100741.03
2023-07-08T10:29:26.295Z,100737.97
2023-07-08T10:32:12.033Z,100731.28
2023-07-08T10:34:50.744Z,100737.91
2023-07-08T10:37:32.325Z,100734.06
2023-07-08T10:40:20.487Z,100739.81
2023-07-08T10:43:11.411Z,100739.22
2023-07-08T10:45:50.811Z,100735.38
2023-07-08T10:48:45.620Z,100735.56
2023-07-08T10:51:33.124Z,100726.81
2023-07-08T10:54:28.763Z,100728.00
2023-07-08T10:57:13.273Z,100727.88
2023-07-08T11:00:01.042Z,100730.06
2023-07-08T11:03:17.057Z,100725.38
2023-07-08T11:05:51.617Z,100728.22
2023-07-08T11:08:29.358Z,100720.31
2023-07-08T11:13:46.156Z,100709.94
2023-07-08T11:16:25.885Z,100713.38
2023-07-08T11:19:03.653Z,100716.56
2023-07-08T11:21:38.739Z,100703.88
2023-07-08T11:24:22.455Z,100710.38
2023-07-08T11:26:58.590Z,100712.31
2023-07-08T11:29:38.386Z,100709.44
2023-07-08T11:32:15.464Z,100709.50
2023-07-08T11:34:47.746Z,100702.03
2023-07-08T11:37:19.944Z,100703.31
2023-07-08T11:39:54.880Z,100694.78
2023-07-08T11:42:36.176Z,100695.41
2023-07-08T11:45:24.967Z,100693.44
2023-07-08T11:48:04.144Z,100685.69
2023-07-08T11:50:38.475Z,100686.94
2023-07-08T11:53:10.261Z,100684.91
2023-07-08T11:55:44.160Z,100682.50
2023-07-08T11:58:23.511Z,100668.47
2023-07-08T12:01:04.445Z,100678.53
2023-07-08T12:03:39.471Z,100673.31
2023-07-08T12:06:44.927Z,100665.41
2023-07-08T12:09:26.690Z,100655.03
2023-07-08T12:12:01.386Z,100665.03
2023-07-08T12:14:32.571Z,100655.22
2023-07-08T12:17:00.634Z,100658.19
2023-07-08T12:19:35.781Z,100649.09
2023-07-08T12:22:06.532Z,100647.31
2023-07-08T12:24:35.053Z,100650.69
2023-07-08T12:27:04.018Z,100647.41
2023-07-08T12:29:33.053Z,100649.38
2023-07-08T12:32:01.230Z,100653.34
2023-07-08T12:34:30.761Z,100653.34
2023-07-08T12:36:58.917Z,100651.19
2023-07-08T12:39:26.766Z,100644.84
2023-07-08T12:41:57.839Z,100643.50
2023-07-08T12:44:27.764Z,100642.75
2023-07-08T12:46:56.903Z,100651.00
2023-07-08T12:49:28.453Z,100657.94
2023-07-08T12:51:57.965Z,100640.84
2023-07-08T12:54:28.842Z,100648.28
2023-07-08T12:56:57.183Z,100647.81
2023-07-08T12:59:26.045Z,100653.00
2023-07-08T13:01:54.577Z,100646.81
2023-07-08T13:04:23.792Z,100639.28
2023-07-08T13:06:52.219Z,100653.19
2023-07-08T13:09:38.725Z,100651.53
2023-07-08T13:12:17.796Z,100646.72
2023-07-08T13:14:47.108Z,100643.72
2023-07-08T13:17:16.560Z,100643.59
2023-07-08T13:19:45.789Z,100646.53
2023-07-08T13:22:19.186Z,100655.28
2023-07-08T13:24:49.714Z,100644.13
2023-07-08T13:27:25.099Z,100634.88
2023-07-08T13:29:53.508Z,100642.25
2023-07-08T13:32:21.472Z,100641.44
2023-07-08T13:34:51.992Z,100644.03
2023-07-08T13:37:24.013Z,100645.16
2023-07-08T13:39:55.615Z,100650.03
2023-07-08T13:42:23.702Z,100644.38
2023-07-08T13:44:51.752Z,100645.31
2023-07-08T13:47:28.702Z,100648.75
2023-07-08T13:50:06.209Z,100642.84
2023-07-08T13:52:34.350Z,100640.06
2023-07-08T13:55:20.072Z,100646.53
2023-07-08T13:58:00.527Z,100636.25
2023-07-08T14:00:32.054Z,100643.78
2023-07-08T14:03:00.582Z,100639.47
2023-07-08T14:05:28.639Z,100645.00
2023-07-08T14:07:56.484Z,100640.03
2023-07-08T14:10:25.703Z,100647.09
2023-07-08T14:12:53.626Z,100649.47
2023-07-08T14:15:21.480Z,100642.94
2023-07-08T14:17:50.442Z,100649.88
2023-07-08T14:20:19.338Z,100644.38
2023-07-08T14:22:47.365Z,100644.09
2023-07-08T14:25:16.792Z,100647.75
2023-07-08T14:27:46.092Z,100645.50
2023-07-08T14:30:14.503Z,100651.06
2023-07-08T14:32:42.854Z,100644.44
2023-07-08T14:35:18.432Z,100647.78
2023-07-08T14:37:46.495Z,100655.25
2023-07-08T14:40:27.508Z,100648.22
2023-07-08T14:43:02.916Z,100660.88
2023-07-08T14:45:43.229Z,100646.56
2023-07-08T14:48:12.343Z,100653.91
2023-07-08T14:50:41.207Z,100655.31
2023-07-08T14:53:09.876Z,100650.81
2023-07-08T14:55:38.353Z,100663.78
2023-07-08T14:58:07.951Z,100659.78
2023-07-08T15:00:36.152Z,100655.72
2023-07-08T15:03:06.102Z,100657.31
2023-07-08T15:05:33.949Z,100662.09
2023-07-08T15:08:01.847Z,100663.22
2023-07-08T15:10:31.357Z,100655.75
2023-07-08T15:13:01.118Z,100655.03
2023-07-08T15:15:33.335Z,100652.28
2023-07-08T15:18:03.522Z,100641.66
2023-07-08T15:20:33.981Z,100659.75
2023-07-08T15:23:02.070Z,100656.69
2023-07-08T15:25:30.164Z,100656.97
2023-07-08T15:27:58.665Z,100652.66
2023-07-08T15:30:30.584Z,100652.66
2023-07-08T15:32:59.459Z,100646.59
2023-07-08T15:35:31.542Z,100641.53
2023-07-08T15:38:00.435Z,100648.50
2023-07-08T15:40:32.715Z,100649.75
2023-07-08T15:43:03.807Z,100649.06
2023-07-08T15:45:36.480Z,100647.38
2023-07-08T15:48:04.833Z,100636.34
2023-07-08T15:50:32.928Z,100639.78
2023-07-08T15:53:00.862Z,100631.22
2023-07-08T15:55:34.775Z,100632.63
2023-07-08T15:58:08.105Z,100632.34
2023-07-08T16:00:41.102Z,100639.19
2023-07-08T16:03:19.475Z,100636.28
2023-07-08T16:05:47.492Z,100640.84
2023-07-08T16:08:15.318Z,100649.19
2023-07-08T16:10:46.999Z,100644.50
2023-07-08T16:13:24.540Z,100637.19
2023-07-08T16:15:55.011Z,100637.09
2023-07-08T16:18:23.535Z,100636.97
2023-07-08T16:20:51.691Z,100639.19
2023-07-08T16:23:19.712Z,100639.72
2023-07-08T16:25:51.587Z,100629.97
2023-07-08T16:28:29.465Z,100639.66
2023-07-08T16:30:59.013Z,100637.00
2023-07-08T16:33:27.339Z,100642.09
2023-07-08T16:35:55.167Z,100635.78
2023-07-08T16:38:22.965Z,100640.50
2023-07-08T16:40:51.881Z,100640.25
2023-07-08T16:43:27.054Z,100636.59
2023-07-08T16:45:55.052Z,100636.47
2023-07-08T16:48:24.486Z,100643.19
2023-07-08T16:50:53.067Z,100639.28
2023-07-08T16:53:20.933Z,100638.31
2023-07-08T16:55:49.731Z,100639.81
2023-07-08T16:58:17.902Z,100640.63
2023-07-08T17:00:47.524Z,100642.97
2023-07-08T17:03:18.984Z,100636.72
2023-07-08T17:05:48.800Z,100635.38
2023-07-08T17:08:17.369Z,100634.78
2023-07-08T17:10:45.572Z,100633.09
2023-07-08T17:13:13.487Z,100630.47
2023-07-08T17:15:41.958Z,100624.34
2023-07-08T17:18:21.422Z,100624.59
2023-07-08T17:20:55.370Z,100629.25
2023-07-08T17:23:23.851Z,100618.19
2023-07-08T17:25:51.658Z,100625.78
2023-07-08T17:28:19.849Z,100625.78
2023-07-08T17:30:51.346Z,100627.88
2023-07-08T17:33:24.011Z,100633.16
2023-07-08T17:35:54.998Z,100632.47
2023-07-08T17:38:46.515Z,100622.28
2023-07-08T17:41:18.766Z,100621.81
2023-07-08T17:43:47.857Z,100624.19
2023-07-08T17:46:20.588Z,100620.38
2023-07-08T17:48:49.336Z,100619.88
2023-07-08T17:51:22.384Z,100620.09
2023-07-08T17:53:53.177Z,100616.44
2023-07-08T17:56:32.369Z,100623.44
2023-07-08T17:59:01.983Z,100617.34
2023-07-08T18:01:30.674Z,100614.25
2023-07-08T18:03:58.672Z,100622.44
2023-07-08T18:06:28.021Z,100622.44
2023-07-08T18:08:55.916Z,100620.50
2023-07-08T18:11:28.112Z,100617.59
2023-07-08T18:13:57.815Z,100626.31
2023-07-08T18:16:28.164Z,100626.53
2023-07-08T18:18:56.081Z,100627.19
2023-07-08T18:21:27.615Z,100627.38
2023-07-08T18:23:56.593Z,100641.03
2023-07-08T18:26:28.339Z,100636.09
2023-07-08T18:28:56.293Z,100646.03
2023-07-08T18:31:31.869Z,100644.00
2023-07-08T18:34:02.463Z,100640.94
2023-07-08T18:36:32.980Z,100642.84
2023-07-08T18:39:01.483Z,100644.00
2023-07-08T18:41:40.733Z,100654.38
2023-07-08T18:44:19.449Z,100652.53
2023-07-08T18:46:47.402Z,100653.03
2023-07-08T18:49:15.288Z,100660.28
2023-07-08T18:51:45.240Z,100662.56
2023-07-08T18:54:16.621Z,100657.78
2023-07-08T18:56:45.143Z,100665.44
2023-07-08T18:59:13.220Z,100667.72
2023-07-08T19:01:44.992Z,100659.47
2023-07-08T19:04:19.038Z,100664.84
2023-07-08T19:06:48.812Z,100660.19
2023-07-08T19:09:16.677Z,100663.41
2023-07-08T19:11:47.291Z,100660.63
2023-07-08T19:14:18.396Z,100667.19
2023-07-08T19:16:46.655Z,100666.75
2023-07-08T19:19:15.035Z,100675.22
2023-07-08T19:21:43.274Z,100676.09
2023-07-08T19:24:24.206Z,100676.25
2023-07-08T19:27:00.464Z,100675.69
2023-07-08T19:29:28.229Z,100679.66
2023-07-08T19:31:56.194Z,100689.31
2023-07-08T19:34:24.226Z,100684.78
2023-07-08T19:36:52.188Z,100689.75
2023-07-08T19:39:21.380Z,100697.84
2023-07-08T19:41:49.350Z,100701.59
2023-07-08T19:44:26.104Z,100700.53
2023-07-08T19:46:55.161Z,100705.41
2023-07-08T19:49:23.173Z,100702.97
2023-07-08T19:51:51.090Z,100709.00
2023-07-08T19:54:18.902Z,100710.75
2023-07-08T19:56:48.191Z,100708.84
2023-07-08T19:59:16.192Z,100722.28
2023-07-08T20:01:44.428Z,100717.47
2023-07-08T20:04:17.001Z,100722.19
2023-07-08T20:06:46.186Z,100726.38
2023-07-08T20:09:16.218Z,100730.56
2023-07-08T20:11:44.878Z,100733.19
2023-07-08T20:14:14.282Z,100732.66
2023-07-08T20:16:43.948Z,100737.09
2023-07-08T20:19:20.820Z,100735.94
2023-07-08T20:21:48.610Z,100734.78
2023-07-08T20:24:16.468Z,100730.50
2023-07-08T20:26:46.734Z,100732.78
2023-07-08T20:29:17.924Z,100735.91
2023-07-08T20:31:46.230Z,100735.44
2023-07-08T20:34:18.353Z,100730.38
2023-07-08T20:36:46.919Z,100732.81
2023-07-08T20:39:20.011Z,100739.63
2023-07-08T20:41:48.000Z,100739.16
2023-07-08T20:44:17.145Z,100739.75
2023-07-08T20:46:50.665Z,100744.56
2023-07-08T20:49:19.784Z,100743.03
2023-07-08T20:51:47.710Z,100744.09
2023-07-08T20:54:15.775Z,100742.56
2023-07-08T20:56:43.707Z,100754.28
2023-07-08T20:59:19.021Z,100760.00
2023-07-08T21:01:47.567Z,100753.13
2023-07-08T21:04:15.351Z,100751.72
2023-07-08T21:06:43.405Z,100752.88
2023-07-08T21:09:14.669Z,100750.47
2023-07-08T21:11:42.568Z,100748.72
2023-07-08T21:14:10.638Z,100762.84
2023-07-08T21:16:40.267Z,100758.13
2023-07-08T21:19:10.424Z,100759.88
2023-07-08T21:21:38.316Z,100762.13
2023-07-08T21:24:13.825Z,100760.56
2023-07-08T21:26:44.643Z,100767.22
2023-07-08T21:29:13.243Z,100761.00
2023-07-08T21:31:42.519Z,100763.66
2023-07-08T21:34:10.599Z,100765.66
2023-07-08T21:36:42.985Z,100754.28
2023-07-08T21:39:23.432Z,100769.28
2023-07-08T21:41:51.381Z,100773.72
2023-07-08T21:44:19.273Z,100775.66
2023-07-08T21:46:48.873Z,100770.59
2023-07-08T21:49:17.768Z,100779.47
2023-07-08T21:51:47.030Z,100780.44
2023-07-08T21:54:16.025Z,100779.53
2023-07-08T21:56:44.079Z,100779.59
2023-07-08T21:59:18.336Z,100783.44
2023-07-08T22:01:48.157Z,100782.66
2023-07-08T22:04:16.444Z,100773.13
2023-07-08T22:06:44.565Z,100770.00
2023-07-08T22:09:12.729Z,100774.72
2023-07-08T22:11:40.872Z,100775.66
2023-07-08T22:14:12.285Z,100781.28
2023-07-08T22:16:40.389Z,100775.97
2023-07-08T22:19:09.586Z,100779.00
2023-07-08T22:21:40.268Z,100774.34
2023-07-08T22:24:10.626Z,100765.75
2023-07-08T22:26:42.301Z,100776.28
2023-07-08T22:29:10.557Z,100777.38
2023-07-08T22:31:41.210Z,100774.84
2023-07-08T22:34:15.188Z,100775.91
2023-07-08T22:36:43.123Z,100781.25
2023-07-08T22:39:12.377Z,100785.72
2023-07-08T22:41:44.781Z,100792.22
2023-07-08T22:44:15.139Z,100795.69
2023-07-08T22:46:43.295Z,100798.50
2023-07-08T22:49:15.684Z,100790.03
2023-07-08T22:51:48.181Z,100792.19
2023-07-08T22:54:19.222Z,100792.19
2023-07-08T22:56:47.141Z,100797.50
2023-07-08T22:59:14.928Z,100794.88
2023-07-08T23:01:43.026Z,100798.06
2023-07-08T23:04:12.294Z,100793.53
2023-07-08T23:06:44.169Z,100805.28
2023-07-08T23:09:15.064Z,100805.38
2023-07-08T23:11:44.163Z,100806.47
2023-07-08T23:14:12.685Z,100801.38
2023-07-08T23:16:40.952Z,100806.78
2023-07-08T23:19:12.867Z,100804.13
2023-07-08T23:21:42.126Z,100812.94
2023-07-08T23:24:10.313Z,100814.66
2023-07-08T23:26:41.571Z,100812.00
2023-07-08T23:32:06.006Z,100825.56
2023-07-08T23:34:35.999Z,100820.44
2023-07-08T23:37:05.183Z,100819.03
2023-07-08T23:39:33.118Z,100814.97
2023-07-08T23:42:01.069Z,100814.47
2023-07-08T23:44:29.535Z,100810.97
2023-07-08T23:47:01.103Z,100821.53
2023-07-08T23:49:34.335Z,100819.75
2023-07-08T23:52:04.747Z,100817.59
2023-07-08T23:54:35.879Z,100821.97
2023-07-08T23:57:07.402Z,100820.13
2023-07-08T23:59:48.468Z,100820.38
